sensor_id;sensor_type;location;lat;lon;timestamp;pressure;altitude;pressure_sealevel;temperature;humidity
69766;BME280;57039;48.014;21.384;2024-02-16T00:00:21;101402.75;;;2.82;100.00
69766;BME280;57039;48.014;21.384;2024-02-16T00:01:24;101406.25;;;2.79;100.00
69766;BME280;57039;48.014;21.384;2024-02-16T00:02:27;101408.81;;;2.81;100.00
69766;BME280;57039;48.014;21.384;2024-02-16T00:03:31;101406.25;;;2.76;100.00
69766;BME280;57039;48.014;21.384;2024-02-16T00:04:34;101409.75;;;2.70;100.00
69766;BME280;57039;48.014;21.384;2024-02-16T00:05:37;101395.19;;;2.59;100.00
69766;BME280;57039;48.014;21.384;2024-02-16T00:06:40;101412.41;;;2.63;100.00
69766;BME280;57039;48.014;21.384;2024-02-16T00:07:43;101408.97;;;2.61;100.00
69766;BME280;57039;48.014;21.384;2024-02-16T00:08:46;101409.00;;;2.58;100.00
69766;BME280;57039;48.014;21.384;2024-02-16T00:09:49;101407.25;;;2.57;100.00
69766;BME280;57039;48.014;21.384;2024-02-16T00:10:51;101402.09;;;2.57;100.00
69766;BME280;57039;48.014;21.384;2024-02-16T00:11:55;101410.72;;;2.59;100.00
69766;BME280;57039;48.014;21.384;2024-02-16T00:12:58;101408.97;;;2.59;100.00
69766;BME280;57039;48.014;21.384;2024-02-16T00:14:00;101405.53;;;2.59;100.00
69766;BME280;57039;48.014;21.384;2024-02-16T00:15:03;101409.00;;;2.58;100.00
69766;BME280;57039;48.014;21.384;2024-02-16T00:16:07;101410.72;;;2.59;100.00
69766;BME280;57039;48.014;21.384;2024-02-16T00:17:10;101407.28;;;2.55;100.00
69766;BME280;57039;48.014;21.384;2024-02-16T00:18:13;101409.87;;;2.54;100.00
69766;BME280;57039;48.014;21.384;2024-02-16T00:19:16;101410.78;;;2.48;100.00
69766;BME280;57039;48.014;21.384;2024-02-16T00:20:19;101412.53;;;2.46;100.00
69766;BME280;57039;48.014;21.384;2024-02-16T00:21:25;101409.06;;;2.48;100.00
69766;BME280;57039;48.014;21.384;2024-02-16T00:22:28;101409.94;;;2.47;100.00
69766;BME280;57039;48.014;21.384;2024-02-16T00:23:31;101412.53;;;2.47;100.00
69766;BME280;57039;48.014;21.384;2024-02-16T00:24:36;101413.37;;;2.49;100.00
69766;BME280;57039;48.014;21.384;2024-02-16T00:25:39;101409.06;;;2.48;100.00
69766;BME280;57039;48.014;21.384;2024-02-16T00:26:43;101411.66;;;2.48;100.00
69766;BME280;57039;48.014;21.384;2024-02-16T00:27:48;101411.62;;;2.50;100.00
69766;BME280;57039;48.014;21.384;2024-02-16T00:28:51;101414.22;;;2.55;100.00
69766;BME280;57039;48.014;21.384;2024-02-16T00:29:54;101414.22;;;2.55;100.00
69766;BME280;57039;48.014;21.384;2024-02-16T00:30:57;101415.91;;;2.57;100.00
69766;BME280;57039;48.014;21.384;2024-02-16T00:32:00;101405.56;;;2.56;100.00
69766;BME280;57039;48.014;21.384;2024-02-16T00:33:03;101412.44;;;2.57;100.00
69766;BME280;57039;48.014;21.384;2024-02-16T00:34:06;101411.53;;;2.62;100.00
69766;BME280;57039;48.014;21.384;2024-02-16T00:35:09;101383.22;;;2.41;100.00
69766;BME280;57039;48.014;21.384;2024-02-16T00:36:14;101414.13;;;2.67;100.00
69766;BME280;57039;48.014;21.384;2024-02-16T00:37:17;101407.25;;;2.60;100.00
69766;BME280;57039;48.014;21.384;2024-02-16T00:38:20;101414.16;;;2.61;100.00
69766;BME280;57039;48.014;21.384;2024-02-16T00:39:23;101417.59;;;2.61;100.00
69766;BME280;57039;48.014;21.384;2024-02-16T00:40:27;101407.28;;;2.55;100.00
69766;BME280;57039;48.014;21.384;2024-02-16T00:41:30;101412.44;;;2.58;100.00
69766;BME280;57039;48.014;21.384;2024-02-16T00:42:33;101409.87;;;2.55;100.00
69766;BME280;57039;48.014;21.384;2024-02-16T00:43:37;101409.03;;;2.55;100.00
69766;BME280;57039;48.014;21.384;2024-02-16T00:44:40;101412.44;;;2.57;100.00
69766;BME280;57039;48.014;21.384;2024-02-16T00:45:43;101402.97;;;2.56;100.00
69766;BME280;57039;48.014;21.384;2024-02-16T00:46:47;101405.56;;;2.56;100.00
69766;BME280;57039;48.014;21.384;2024-02-16T00:47:50;101411.62;;;2.55;100.00
69766;BME280;57039;48.014;21.384;2024-02-16T00:48:54;101399.56;;;2.47;100.00
69766;BME280;57039;48.014;21.384;2024-02-16T00:49:57;101407.25;;;2.57;100.00
69766;BME280;57039;48.014;21.384;2024-02-16T00:51:00;101409.87;;;2.55;100.00
69766;BME280;57039;48.014;21.384;2024-02-16T00:52:03;101404.72;;;2.52;100.00
69766;BME280;57039;48.014;21.384;2024-02-16T00:53:07;101403.88;;;2.51;100.00
69766;BME280;57039;48.014;21.384;2024-02-16T00:54:10;101401.28;;;2.51;100.00
69766;BME280;57039;48.014;21.384;2024-02-16T00:55:13;101407.31;;;2.50;100.00
69766;BME280;57039;48.014;21.384;2024-02-16T00:56:16;101403.00;;;2.49;100.00
69766;BME280;57039;48.014;21.384;2024-02-16T00:57:19;101404.72;;;2.50;100.00
69766;BME280;57039;48.014;21.384;2024-02-16T00:58:22;101402.13;;;2.50;100.00
69766;BME280;57039;48.014;21.384;2024-02-16T00:59:25;101408.16;;;2.54;100.00
69766;BME280;57039;48.014;21.384;2024-02-16T01:00:28;101400.34;;;2.59;100.00
69766;BME280;57039;48.014;21.384;2024-02-16T01:01:31;101399.47;;;2.60;100.00
69766;BME280;57039;48.014;21.384;2024-02-16T01:02:34;101407.25;;;2.60;100.00
69766;BME280;57039;48.014;21.384;2024-02-16T01:03:37;101397.78;;;2.56;100.00
69766;BME280;57039;48.014;21.384;2024-02-16T01:04:41;101412.44;;;2.57;100.00
69766;BME280;57039;48.014;21.384;2024-02-16T01:05:44;101347.12;;;2.21;100.00
69766;BME280;57039;48.014;21.384;2024-02-16T01:06:47;101393.56;;;2.45;100.00
69766;BME280;57039;48.014;21.384;2024-02-16T01:07:49;101396.97;;;2.47;100.00
69766;BME280;57039;48.014;21.384;2024-02-16T01:08:52;101402.13;;;2.52;100.00
69766;BME280;57039;48.014;21.384;2024-02-16T01:09:55;101399.56;;;2.49;100.00
69766;BME280;57039;48.014;21.384;2024-02-16T01:10:59;101396.16;;;2.44;100.00
69766;BME280;57039;48.014;21.384;2024-02-16T01:12:02;101402.13;;;2.55;100.00
69766;BME280;57039;48.014;21.384;2024-02-16T01:13:05;101402.06;;;2.60;100.00
69766;BME280;57039;48.014;21.384;2024-02-16T01:14:08;101404.59;;;2.67;100.00
69766;BME280;57039;48.014;21.384;2024-02-16T01:15:11;101401.16;;;2.65;100.00
69766;BME280;57039;48.014;21.384;2024-02-16T01:16:15;101408.91;;;2.68;100.00
69766;BME280;57039;48.014;21.384;2024-02-16T01:17:20;101403.75;;;2.67;100.00
69766;BME280;57039;48.014;21.384;2024-02-16T01:18:23;101406.37;;;2.62;100.00
69766;BME280;57039;48.014;21.384;2024-02-16T01:19:26;101390.91;;;2.55;100.00
69766;BME280;57039;48.014;21.384;2024-02-16T01:20:29;101408.09;;;2.62;100.00
69766;BME280;57039;48.014;21.384;2024-02-16T01:21:34;101404.59;;;2.66;100.00
69766;BME280;57039;48.014;21.384;2024-02-16T01:22:37;101403.78;;;2.62;100.00
69766;BME280;57039;48.014;21.384;2024-02-16T01:23:40;101391.72;;;2.58;100.00
69766;BME280;57039;48.014;21.384;2024-02-16T01:24:43;101408.09;;;2.63;100.00
69766;BME280;57039;48.014;21.384;2024-02-16T01:25:46;101404.62;;;2.64;100.00
69766;BME280;57039;48.014;21.384;2024-02-16T01:26:49;101405.50;;;2.65;100.00
69766;BME280;57039;48.014;21.384;2024-02-16T01:27:52;101402.00;;;2.66;100.00
69766;BME280;57039;48.014;21.384;2024-02-16T01:28:55;101395.16;;;2.62;100.00
69766;BME280;57039;48.014;21.384;2024-02-16T01:29:58;101382.19;;;2.62;100.00
69766;BME280;57039;48.014;21.384;2024-02-16T01:31:01;101402.81;;;2.74;100.00
69766;BME280;57039;48.014;21.384;2024-02-16T01:32:04;101402.81;;;2.74;100.00
69766;BME280;57039;48.014;21.384;2024-02-16T01:33:07;101401.09;;;2.71;100.00
69766;BME280;57039;48.014;21.384;2024-02-16T01:34:10;101402.81;;;2.74;100.00
69766;BME280;57039;48.014;21.384;2024-02-16T01:35:14;101399.34;;;2.77;100.00
69766;BME280;57039;48.014;21.384;2024-02-16T01:36:18;101402.78;;;2.77;100.00
69766;BME280;57039;48.014;21.384;2024-02-16T01:37:21;101400.19;;;2.79;100.00
69766;BME280;57039;48.014;21.384;2024-02-16T01:38:24;101393.28;;;2.78;100.00
69766;BME280;57039;48.014;21.384;2024-02-16T01:39:26;101310.00;;;2.23;100.00
69766;BME280;57039;48.014;21.384;2024-02-16T01:40:30;101390.63;;;2.84;100.00
69766;BME280;57039;48.014;21.384;2024-02-16T01:41:33;101391.53;;;2.84;100.00
69766;BME280;57039;48.014;21.384;2024-02-16T01:42:36;101392.34;;;2.88;100.00
69766;BME280;57039;48.014;21.384;2024-02-16T01:43:39;101390.59;;;2.88;100.00
69766;BME280;57039;48.014;21.384;2024-02-16T01:44:42;101387.16;;;2.88;100.00
69766;BME280;57039;48.014;21.384;2024-02-16T01:45:45;101382.84;;;2.88;100.00
69766;BME280;57039;48.014;21.384;2024-02-16T01:46:48;101394.06;;;2.89;100.00
69766;BME280;57039;48.014;21.384;2024-02-16T01:47:52;101394.03;;;2.92;100.00
69766;BME280;57039;48.014;21.384;2024-02-16T01:48:56;101389.66;;;2.95;100.00
69766;BME280;57039;48.014;21.384;2024-02-16T01:50:00;101393.09;;;2.97;100.00
69766;BME280;57039;48.014;21.384;2024-02-16T01:51:03;101387.00;;;3.02;100.00
69766;BME280;57039;48.014;21.384;2024-02-16T01:52:07;101387.03;;;2.98;100.00
69766;BME280;57039;48.014;21.384;2024-02-16T01:53:11;101388.78;;;3.00;100.00
69766;BME280;57039;48.014;21.384;2024-02-16T01:54:15;101387.91;;;2.99;100.00
69766;BME280;57039;48.014;21.384;2024-02-16T01:55:21;101390.50;;;3.02;100.00
69766;BME280;57039;48.014;21.384;2024-02-16T01:56:23;101387.88;;;3.04;100.00
69766;BME280;57039;48.014;21.384;2024-02-16T01:57:28;101336.38;;;2.70;100.00
69766;BME280;57039;48.014;21.384;2024-02-16T01:58:31;101393.97;;;3.00;100.00
69766;BME280;57039;48.014;21.384;2024-02-16T01:59:34;101392.19;;;3.02;100.00
69766;BME280;57039;48.014;21.384;2024-02-16T02:00:40;101392.19;;;3.03;100.00
69766;BME280;57039;48.014;21.384;2024-02-16T02:01:44;101387.00;;;3.02;100.00
69766;BME280;57039;48.014;21.384;2024-02-16T02:02:47;101389.59;;;3.02;100.00
69766;BME280;57039;48.014;21.384;2024-02-16T02:03:51;101387.91;;;3.01;100.00
69766;BME280;57039;48.014;21.384;2024-02-16T02:04:54;101389.63;;;3.00;100.00
69766;BME280;57039;48.014;21.384;2024-02-16T02:05:57;101388.78;;;2.98;100.00
69766;BME280;57039;48.014;21.384;2024-02-16T02:07:11;101385.31;;;3.01;100.00
69766;BME280;57039;48.014;21.384;2024-02-16T02:08:14;101380.19;;;2.94;100.00
69766;BME280;57039;48.014;21.384;2024-02-16T02:09:17;101387.00;;;3.02;100.00
69766;BME280;57039;48.014;21.384;2024-02-16T02:10:20;101380.97;;;3.03;100.00
69766;BME280;57039;48.014;21.384;2024-02-16T02:11:23;101379.25;;;3.03;100.00
69766;BME280;57039;48.014;21.384;2024-02-16T02:12:26;101376.69;;;2.98;100.00
69766;BME280;57039;48.014;21.384;2024-02-16T02:13:29;101379.22;;;3.05;100.00
69766;BME280;57039;48.014;21.384;2024-02-16T02:14:32;101379.22;;;3.06;100.00
69766;BME280;57039;48.014;21.384;2024-02-16T02:15:35;101380.91;;;3.07;100.00
69766;BME280;57039;48.014;21.384;2024-02-16T02:16:41;101380.91;;;3.09;100.00
69766;BME280;57039;48.014;21.384;2024-02-16T02:17:57;101378.31;;;3.09;100.00
69766;BME280;57039;48.014;21.384;2024-02-16T02:19:03;101370.59;;;3.03;100.00
69766;BME280;57039;48.014;21.384;2024-02-16T02:20:06;101374.88;;;3.08;100.00
69766;BME280;57039;48.014;21.384;2024-02-16T02:21:14;101379.13;;;3.11;100.00
69766;BME280;57039;48.014;21.384;2024-02-16T02:22:18;101375.69;;;3.12;100.00
69766;BME280;57039;48.014;21.384;2024-02-16T02:23:21;101372.28;;;3.08;100.00
69766;BME280;57039;48.014;21.384;2024-02-16T02:24:24;101380.06;;;3.08;100.00
69766;BME280;57039;48.014;21.384;2024-02-16T02:25:27;101375.72;;;3.07;100.00
69766;BME280;57039;48.014;21.384;2024-02-16T02:26:31;101369.75;;;3.02;100.00
69766;BME280;57039;48.014;21.384;2024-02-16T02:27:34;101370.62;;;3.00;100.00
69766;BME280;57039;48.014;21.384;2024-02-16T02:28:37;101379.31;;;2.95;100.00
69766;BME280;57039;48.014;21.384;2024-02-16T02:29:41;101374.94;;;2.99;100.00
69766;BME280;57039;48.014;21.384;2024-02-16T02:30:44;101375.81;;;3.00;100.00
69766;BME280;57039;48.014;21.384;2024-02-16T02:31:50;101378.41;;;3.00;100.00
69766;BME280;57039;48.014;21.384;2024-02-16T02:32:53;101369.75;;;3.01;100.00
69766;BME280;57039;48.014;21.384;2024-02-16T02:33:56;101371.47;;;3.03;100.00
69766;BME280;57039;48.014;21.384;2024-02-16T02:34:59;101378.34;;;3.04;100.00
69766;BME280;57039;48.014;21.384;2024-02-16T02:36:02;101377.53;;;3.02;100.00
69766;BME280;57039;48.014;21.384;2024-02-16T02:37:07;101378.34;;;3.06;100.00
69766;BME280;57039;48.014;21.384;2024-02-16T02:38:10;101357.72;;;2.95;100.00
69766;BME280;57039;48.014;21.384;2024-02-16T02:39:13;101374.06;;;3.03;100.00
69766;BME280;57039;48.014;21.384;2024-02-16T02:40:16;101384.41;;;3.03;100.00
69766;BME280;57039;48.014;21.384;2024-02-16T02:41:21;101380.94;;;3.04;100.00
69766;BME280;57039;48.014;21.384;2024-02-16T02:42:24;101378.34;;;3.06;100.00
69766;BME280;57039;48.014;21.384;2024-02-16T02:43:27;101382.69;;;3.05;100.00
69766;BME280;57039;48.014;21.384;2024-02-16T02:44:30;101385.31;;;3.02;100.00
69766;BME280;57039;48.014;21.384;2024-02-16T02:45:34;101381.84;;;3.00;100.00
69766;BME280;57039;48.014;21.384;2024-02-16T02:46:37;101380.16;;;2.97;100.00
69766;BME280;57039;48.014;21.384;2024-02-16T02:47:40;101388.81;;;2.95;100.00
69766;BME280;57039;48.014;21.384;2024-02-16T02:48:44;101386.22;;;2.96;100.00
69766;BME280;57039;48.014;21.384;2024-02-16T02:49:54;101341.53;;;2.73;100.00
69766;BME280;57039;48.014;21.384;2024-02-16T02:50:57;101384.44;;;2.98;100.00
69766;BME280;57039;48.014;21.384;2024-02-16T02:52:02;101382.72;;;3.01;100.00
69766;BME280;57039;48.014;21.384;2024-02-16T02:53:07;101382.72;;;3.01;100.00
69766;BME280;57039;48.014;21.384;2024-02-16T02:54:10;101380.97;;;3.03;100.00
69766;BME280;57039;48.014;21.384;2024-02-16T02:55:13;101368.06;;;2.96;100.00
69766;BME280;57039;48.014;21.384;2024-02-16T02:56:16;101379.22;;;3.05;100.00
69766;BME280;57039;48.014;21.384;2024-02-16T02:57:20;101382.69;;;3.04;100.00
69766;BME280;57039;48.014;21.384;2024-02-16T02:58:23;101375.78;;;3.03;100.00
69766;BME280;57039;48.014;21.384;2024-02-16T02:59:25;101388.78;;;3.00;100.00
69766;BME280;57039;48.014;21.384;2024-02-16T03:00:28;101382.72;;;3.01;100.00
69766;BME280;57039;48.014;21.384;2024-02-16T03:01:31;101387.00;;;3.03;100.00
69766;BME280;57039;48.014;21.384;2024-02-16T03:02:34;101373.25;;;2.96;100.00
69766;BME280;57039;48.014;21.384;2024-02-16T03:03:37;101389.59;;;3.03;100.00
69766;BME280;57039;48.014;21.384;2024-02-16T03:04:40;101387.91;;;3.01;100.00
69766;BME280;57039;48.014;21.384;2024-02-16T03:05:43;101391.41;;;2.96;100.00
69766;BME280;57039;48.014;21.384;2024-02-16T03:06:47;101399.16;;;2.98;100.00
69766;BME280;57039;48.014;21.384;2024-02-16T03:07:50;101396.56;;;2.98;100.00
69766;BME280;57039;48.014;21.384;2024-02-16T03:08:53;101397.41;;;3.00;100.00
69766;BME280;57039;48.014;21.384;2024-02-16T03:09:57;101397.41;;;3.00;100.00
69766;BME280;57039;48.014;21.384;2024-02-16T03:11:00;101398.25;;;3.01;100.00
69766;BME280;57039;48.014;21.384;2024-02-16T03:12:04;101397.41;;;3.00;100.00
69766;BME280;57039;48.014;21.384;2024-02-16T03:13:07;101393.09;;;2.97;100.00
69766;BME280;57039;48.014;21.384;2024-02-16T03:14:11;101393.16;;;2.94;100.00
69766;BME280;57039;48.014;21.384;2024-02-16T03:15:14;101394.00;;;2.95;100.00
69766;BME280;57039;48.014;21.384;2024-02-16T03:16:17;101392.25;;;2.97;100.00
69766;BME280;57039;48.014;21.384;2024-02-16T03:17:20;101400.88;;;2.96;100.00
69766;BME280;57039;48.014;21.384;2024-02-16T03:18:22;101400.88;;;2.96;100.00
69766;BME280;57039;48.014;21.384;2024-02-16T03:19:25;101387.09;;;2.92;100.00
69766;BME280;57039;48.014;21.384;2024-02-16T03:20:29;101386.22;;;2.96;100.00
69766;BME280;57039;48.014;21.384;2024-02-16T03:21:33;101387.94;;;2.97;100.00
69766;BME280;57039;48.014;21.384;2024-02-16T03:22:36;101387.91;;;3.01;100.00
69766;BME280;57039;48.014;21.384;2024-02-16T03:23:38;101387.03;;;3.00;100.00
69766;BME280;57039;48.014;21.384;2024-02-16T03:24:41;101375.94;;;2.87;100.00
69766;BME280;57039;48.014;21.384;2024-02-16T03:25:44;101390.53;;;2.96;100.00
69766;BME280;57039;48.014;21.384;2024-02-16T03:26:48;101397.44;;;2.95;100.00
69766;BME280;57039;48.014;21.384;2024-02-16T03:27:51;101380.28;;;2.84;100.00
69766;BME280;57039;48.014;21.384;2024-02-16T03:28:55;101396.63;;;2.92;100.00
69766;BME280;57039;48.014;21.384;2024-02-16T03:29:58;101397.47;;;2.92;100.00
69766;BME280;57039;48.014;21.384;2024-02-16T03:31:02;101392.28;;;2.92;100.00
69766;BME280;57039;48.014;21.384;2024-02-16T03:32:07;101402.63;;;2.95;100.00
69766;BME280;57039;48.014;21.384;2024-02-16T03:33:10;101397.47;;;2.92;100.00
69766;BME280;57039;48.014;21.384;2024-02-16T03:34:13;101400.91;;;2.94;100.00
69766;BME280;57039;48.014;21.384;2024-02-16T03:35:16;101352.81;;;2.64;100.00
69766;BME280;57039;48.014;21.384;2024-02-16T03:36:20;101405.25;;;2.92;100.00
69766;BME280;57039;48.014;21.384;2024-02-16T03:37:23;101406.13;;;2.91;100.00
69766;BME280;57039;48.014;21.384;2024-02-16T03:38:26;101408.78;;;2.85;100.00
69766;BME280;57039;48.014;21.384;2024-02-16T03:39:29;101401.84;;;2.86;100.00
69766;BME280;57039;48.014;21.384;2024-02-16T03:40:32;101407.88;;;2.86;100.00
69766;BME280;57039;48.014;21.384;2024-02-16T03:41:35;101402.72;;;2.86;100.00
69766;BME280;57039;48.014;21.384;2024-02-16T03:42:39;101404.44;;;2.86;100.00
69766;BME280;57039;48.014;21.384;2024-02-16T03:43:43;101407.88;;;2.86;100.00
69766;BME280;57039;48.014;21.384;2024-02-16T03:44:46;101403.56;;;2.87;100.00
69766;BME280;57039;48.014;21.384;2024-02-16T03:45:48;101404.44;;;2.86;100.00
69766;BME280;57039;48.014;21.384;2024-02-16T03:46:51;101402.72;;;2.86;100.00
69766;BME280;57039;48.014;21.384;2024-02-16T03:47:58;101401.84;;;2.87;100.00
69766;BME280;57039;48.014;21.384;2024-02-16T03:49:02;101403.59;;;2.85;100.00
69766;BME280;57039;48.014;21.384;2024-02-16T03:50:05;101403.63;;;2.82;100.00
69766;BME280;57039;48.014;21.384;2024-02-16T03:51:09;101408.81;;;2.82;100.00
69766;BME280;57039;48.014;21.384;2024-02-16T03:52:13;101405.31;;;2.83;100.00
69766;BME280;57039;48.014;21.384;2024-02-16T03:53:17;101411.38;;;2.85;100.00
69766;BME280;57039;48.014;21.384;2024-02-16T03:54:19;101397.56;;;2.83;100.00
69766;BME280;57039;48.014;21.384;2024-02-16T03:55:22;101405.31;;;2.86;100.00
69766;BME280;57039;48.014;21.384;2024-02-16T03:56:25;101404.47;;;2.84;100.00
69766;BME280;57039;48.014;21.384;2024-02-16T03:57:27;101393.31;;;2.76;100.00
69766;BME280;57039;48.014;21.384;2024-02-16T03:58:31;101413.97;;;2.84;100.00
69766;BME280;57039;48.014;21.384;2024-02-16T03:59:34;101413.09;;;2.83;100.00
69766;BME280;57039;48.014;21.384;2024-02-16T04:00:36;101410.50;;;2.83;100.00
69766;BME280;57039;48.014;21.384;2024-02-16T04:01:39;101412.25;;;2.84;100.00
69766;BME280;57039;48.014;21.384;2024-02-16T04:02:45;101407.91;;;2.83;100.00
69766;BME280;57039;48.014;21.384;2024-02-16T04:03:48;101383.84;;;2.70;100.00
69766;BME280;57039;48.014;21.384;2024-02-16T04:04:51;101406.22;;;2.81;100.00
69766;BME280;57039;48.014;21.384;2024-02-16T04:05:53;101410.53;;;2.80;100.00
69766;BME280;57039;48.014;21.384;2024-02-16T04:06:56;101403.63;;;2.81;100.00
69766;BME280;57039;48.014;21.384;2024-02-16T04:07:59;101401.91;;;2.80;100.00
69766;BME280;57039;48.014;21.384;2024-02-16T04:09:08;101404.50;;;2.78;100.00
69766;BME280;57039;48.014;21.384;2024-02-16T04:10:11;101403.66;;;2.76;100.00
69766;BME280;57039;48.014;21.384;2024-02-16T04:11:14;101405.34;;;2.80;100.00
69766;BME280;57039;48.014;21.384;2024-02-16T04:12:18;101412.31;;;2.77;100.00
69766;BME280;57039;48.014;21.384;2024-02-16T04:13:21;101408.81;;;2.78;100.00
69766;BME280;57039;48.014;21.384;2024-02-16T04:14:24;101407.94;;;2.80;100.00
69766;BME280;57039;48.014;21.384;2024-02-16T04:15:27;101414.84;;;2.83;100.00
69766;BME280;57039;48.014;21.384;2024-02-16T04:16:30;101406.22;;;2.82;100.00
69766;BME280;57039;48.014;21.384;2024-02-16T04:17:33;101401.09;;;2.76;100.00
69766;BME280;57039;48.014;21.384;2024-02-16T04:18:36;101410.53;;;2.82;100.00
69766;BME280;57039;48.014;21.384;2024-02-16T04:19:39;101412.28;;;2.80;100.00
69766;BME280;57039;48.014;21.384;2024-02-16T04:20:43;101413.09;;;2.83;100.00
69766;BME280;57039;48.014;21.384;2024-02-16T04:21:46;101412.25;;;2.83;100.00
69766;BME280;57039;48.014;21.384;2024-02-16T04:22:49;101407.91;;;2.83;100.00
69766;BME280;57039;48.014;21.384;2024-02-16T04:23:52;101413.06;;;2.86;100.00
69766;BME280;57039;48.014;21.384;2024-02-16T04:24:55;101414.84;;;2.84;100.00
69766;BME280;57039;48.014;21.384;2024-02-16T04:25:57;101420.88;;;2.83;100.00
69766;BME280;57039;48.014;21.384;2024-02-16T04:27:00;101411.41;;;2.82;100.00
69766;BME280;57039;48.014;21.384;2024-02-16T04:28:05;101420.91;;;2.82;100.00
69766;BME280;57039;48.014;21.384;2024-02-16T04:29:08;101413.13;;;2.82;100.00
69766;BME280;57039;48.014;21.384;2024-02-16T04:30:11;101413.09;;;2.83;100.00
69766;BME280;57039;48.014;21.384;2024-02-16T04:31:14;101418.28;;;2.83;100.00
69766;BME280;57039;48.014;21.384;2024-02-16T04:32:17;101424.31;;;2.85;100.00
69766;BME280;57039;48.014;21.384;2024-02-16T04:33:20;101418.28;;;2.83;100.00
69766;BME280;57039;48.014;21.384;2024-02-16T04:34:23;101418.28;;;2.83;100.00
69766;BME280;57039;48.014;21.384;2024-02-16T04:35:26;101409.69;;;2.80;100.00
69766;BME280;57039;48.014;21.384;2024-02-16T04:36:29;101425.19;;;2.86;100.00
69766;BME280;57039;48.014;21.384;2024-02-16T04:37:32;101393.34;;;2.71;100.00
69766;BME280;57039;48.014;21.384;2024-02-16T04:38:36;101422.63;;;2.83;100.00
69766;BME280;57039;48.014;21.384;2024-02-16T04:39:39;101422.63;;;2.84;100.00
69766;BME280;57039;48.014;21.384;2024-02-16T04:40:43;101419.13;;;2.85;100.00
69766;BME280;57039;48.014;21.384;2024-02-16T04:41:46;101414.84;;;2.81;100.00
69766;BME280;57039;48.014;21.384;2024-02-16T04:42:48;101411.41;;;2.82;100.00
69766;BME280;57039;48.014;21.384;2024-02-16T04:43:51;101416.56;;;2.81;100.00
69766;BME280;57039;48.014;21.384;2024-02-16T04:44:55;101417.47;;;2.80;100.00
69766;BME280;57039;48.014;21.384;2024-02-16T04:45:58;101421.75;;;2.81;100.00
69766;BME280;57039;48.014;21.384;2024-02-16T04:47:02;101423.50;;;2.80;100.00
69766;BME280;57039;48.014;21.384;2024-02-16T04:48:07;101420.91;;;2.80;100.00
69766;BME280;57039;48.014;21.384;2024-02-16T04:49:10;101422.59;;;2.81;100.00
69766;BME280;57039;48.014;21.384;2024-02-16T04:50:13;101421.78;;;2.78;100.00
69766;BME280;57039;48.014;21.384;2024-02-16T04:51:16;101422.63;;;2.78;100.00
69766;BME280;57039;48.014;21.384;2024-02-16T04:52:19;101420.03;;;2.78;100.00
69766;BME280;57039;48.014;21.384;2024-02-16T04:53:22;101423.50;;;2.82;100.00
69766;BME280;57039;48.014;21.384;2024-02-16T04:54:25;101423.50;;;2.82;100.00
69766;BME280;57039;48.014;21.384;2024-02-16T04:55:28;101424.34;;;2.82;100.00
69766;BME280;57039;48.014;21.384;2024-02-16T04:56:32;101429.53;;;2.82;100.00
69766;BME280;57039;48.014;21.384;2024-02-16T04:57:34;101420.00;;;2.81;100.00
69766;BME280;57039;48.014;21.384;2024-02-16T04:58:41;101425.19;;;2.81;100.00
69766;BME280;57039;48.014;21.384;2024-02-16T04:59:44;101424.34;;;2.82;100.00
69766;BME280;57039;48.014;21.384;2024-02-16T05:00:47;101432.97;;;2.84;100.00
69766;BME280;57039;48.014;21.384;2024-02-16T05:01:50;101427.78;;;2.81;100.00
69766;BME280;57039;48.014;21.384;2024-02-16T05:02:53;101420.94;;;2.74;100.00
69766;BME280;57039;48.014;21.384;2024-02-16T05:04:00;101428.69;;;2.77;100.00
69766;BME280;57039;48.014;21.384;2024-02-16T05:05:05;101431.28;;;2.77;100.00
69766;BME280;57039;48.014;21.384;2024-02-16T05:06:07;101431.28;;;2.77;100.00
69766;BME280;57039;48.014;21.384;2024-02-16T05:07:11;101429.59;;;2.76;100.00
69766;BME280;57039;48.014;21.384;2024-02-16T05:08:14;101431.31;;;2.76;100.00
69766;BME280;57039;48.014;21.384;2024-02-16T05:09:17;101384.09;;;2.43;100.00
69766;BME280;57039;48.014;21.384;2024-02-16T05:10:20;101432.16;;;2.74;100.00
69766;BME280;57039;48.014;21.384;2024-02-16T05:11:23;101428.69;;;2.77;100.00
69766;BME280;57039;48.014;21.384;2024-02-16T05:12:27;101433.06;;;2.72;100.00
69766;BME280;57039;48.014;21.384;2024-02-16T05:13:30;101430.47;;;2.73;100.00
69766;BME280;57039;48.014;21.384;2024-02-16T05:14:33;101430.50;;;2.70;100.00
69766;BME280;57039;48.014;21.384;2024-02-16T05:15:36;101432.22;;;2.68;100.00
69766;BME280;57039;48.014;21.384;2024-02-16T05:16:43;101436.53;;;2.68;100.00
69766;BME280;57039;48.014;21.384;2024-02-16T05:17:47;101424.53;;;2.61;100.00
69766;BME280;57039;48.014;21.384;2024-02-16T05:18:52;101433.06;;;2.69;100.00
69766;BME280;57039;48.014;21.384;2024-02-16T05:19:55;101440.87;;;2.67;100.00
69766;BME280;57039;48.014;21.384;2024-02-16T05:20:58;101433.09;;;2.66;100.00
69766;BME280;57039;48.014;21.384;2024-02-16T05:22:01;101437.44;;;2.65;100.00
69766;BME280;57039;48.014;21.384;2024-02-16T05:23:04;101433.09;;;2.66;100.00
69766;BME280;57039;48.014;21.384;2024-02-16T05:24:07;101440.87;;;2.63;100.00
69766;BME280;57039;48.014;21.384;2024-02-16T05:25:09;101420.28;;;2.49;100.00
69766;BME280;57039;48.014;21.384;2024-02-16T05:26:16;101439.16;;;2.65;100.00
69766;BME280;57039;48.014;21.384;2024-02-16T05:27:18;101441.75;;;2.66;100.00